createdAt,value
2022-09-28T00:03:24.524Z,98651.91
2022-09-28T00:08:27.778Z,98647.48
2022-09-28T00:13:33.784Z,98640.42
2022-09-28T00:18:47.255Z,98638.50
2022-09-28T00:24:16.429Z,98638.08
2022-09-28T00:29:27.248Z,98630.36
2022-09-28T00:34:40.174Z,98620.43
2022-09-28T00:39:44.809Z,98614.48
2022-09-28T00:44:58.682Z,98610.27
2022-09-28T00:50:07.433Z,98609.79
2022-09-28T00:55:17.813Z,98612.88
2022-09-28T01:00:22.205Z,98608.38
2022-09-28T01:05:27.102Z,98604.35
2022-09-28T01:10:31.741Z,98604.27
2022-09-28T01:15:44.176Z,98600.77
2022-09-28T01:21:06.192Z,98605.17
2022-09-28T01:26:24.405Z,98604.05
2022-09-28T01:31:32.017Z,98604.16
2022-09-28T01:36:44.363Z,98597.72
2022-09-28T01:41:51.785Z,98599.11
2022-09-28T01:46:55.355Z,98595.84
2022-09-28T01:52:33.292Z,98594.67
2022-09-28T01:58:01.738Z,98595.84
2022-09-28T02:03:14.365Z,98593.92
2022-09-28T02:08:34.484Z,98599.89
2022-09-28T02:13:48.610Z,98598.27
2022-09-28T02:18:53.228Z,98591.14
2022-09-28T02:23:59.078Z,98593.71
2022-09-28T02:29:02.974Z,98598.62
2022-09-28T02:34:07.231Z,98596.61
2022-09-28T02:39:15.392Z,98595.95
2022-09-28T02:44:49.715Z,98593.10
2022-09-28T02:50:16.485Z,98593.31
2022-09-28T02:55:29.133Z,98593.59
2022-09-28T03:00:45.860Z,98596.58
2022-09-28T03:06:08.347Z,98594.73
2022-09-28T03:11:25.502Z,98594.34
2022-09-28T03:16:32.200Z,98597.83
2022-09-28T03:21:36.433Z,98601.92
2022-09-28T03:26:39.870Z,98603.98
2022-09-28T03:31:44.536Z,98604.52
2022-09-28T03:36:48.636Z,98599.98
2022-09-28T03:41:52.165Z,98602.73
2022-09-28T03:46:56.910Z,98599.30
2022-09-28T03:52:00.622Z,98595.55
2022-09-28T03:57:03.964Z,98587.70
2022-09-28T04:02:08.512Z,98588.94
2022-09-28T04:07:11.928Z,98592.52
2022-09-28T04:12:15.772Z,98593.00
2022-09-28T04:17:19.070Z,98595.44
2022-09-28T04:22:23.529Z,98594.83
2022-09-28T04:27:46.113Z,98592.24
2022-09-28T04:32:49.860Z,98584.45
2022-09-28T04:37:53.718Z,98579.42
2022-09-28T04:42:57.450Z,98581.98
2022-09-28T04:48:01.827Z,98581.35
2022-09-28T04:53:24.063Z,98580.73
2022-09-28T04:58:28.107Z,98580.78
2022-09-28T05:03:31.686Z,98580.30
2022-09-28T05:08:52.147Z,98585.76
2022-09-28T05:13:55.659Z,98584.34
2022-09-28T05:18:58.973Z,98573.66
2022-09-28T05:24:07.754Z,98577.15
2022-09-28T05:29:15.031Z,98575.58
2022-09-28T05:34:31.764Z,98574.05
2022-09-28T05:39:35.213Z,98570.46
2022-09-28T05:44:38.776Z,98569.63
2022-09-28T05:49:43.326Z,98566.84
2022-09-28T05:54:49.179Z,98563.23
2022-09-28T05:59:52.540Z,98561.21
2022-09-28T06:04:56.165Z,98557.80
2022-09-28T06:10:14.423Z,98555.65
2022-09-28T06:15:32.768Z,98555.27
2022-09-28T06:20:47.101Z,98553.87
2022-09-28T06:26:04.527Z,98550.58
2022-09-28T06:31:16.105Z,98550.23
2022-09-28T06:36:28.418Z,98557.59
2022-09-28T06:41:32.113Z,98552.27
2022-09-28T06:46:39.126Z,98547.98
2022-09-28T06:52:01.320Z,98545.14
2022-09-28T06:57:30.634Z,98544.47
2022-09-28T07:02:33.979Z,98531.31
2022-09-28T07:07:50.682Z,98527.23
2022-09-28T07:13:07.922Z,98520.83
2022-09-28T07:18:20.867Z,98518.70
2022-09-28T07:23:24.994Z,98517.00
2022-09-28T07:28:49.795Z,98525.79
2022-09-28T07:34:17.701Z,98536.27
2022-09-28T07:40:10.242Z,98538.08
2022-09-28T07:45:15.482Z,98536.91
2022-09-28T07:50:21.264Z,98530.41
2022-09-28T07:55:43.165Z,98523.52
2022-09-28T08:01:12.132Z,98519.21
2022-09-28T08:06:17.943Z,98515.05
2022-09-28T08:11:24.776Z,98521.09
2022-09-28T08:16:50.781Z,98519.20
2022-09-28T08:22:19.174Z,98518.88
2022-09-28T08:27:22.692Z,98523.14
2022-09-28T08:32:27.536Z,98527.30
2022-09-28T08:37:57.163Z,98518.38
2022-09-28T08:43:50.384Z,98507.59
2022-09-28T08:49:26.531Z,98509.54
2022-09-28T08:54:58.316Z,98506.23
2022-09-28T09:00:21.521Z,98505.91
2022-09-28T09:05:44.466Z,98499.67
2022-09-28T09:11:14.378Z,98495.84
2022-09-28T09:16:30.451Z,98495.23
2022-09-28T09:22:27.573Z,98491.32
2022-09-28T09:28:04.217Z,98488.97
2022-09-28T09:33:37.583Z,98479.46
2022-09-28T09:39:26.194Z,98484.14
2022-09-28T09:44:50.941Z,98481.78
2022-09-28T09:50:46.083Z,98477.77
2022-09-28T09:55:57.534Z,98471.43
2022-09-28T10:01:11.320Z,98471.30
2022-09-28T10:06:37.769Z,98469.39
2022-09-28T10:11:47.066Z,98468.24
2022-09-28T10:16:53.833Z,98471.66
2022-09-28T10:22:25.875Z,98471.09
2022-09-28T10:27:36.671Z,98472.58
2022-09-28T10:32:49.547Z,98473.20
2022-09-28T10:38:16.140Z,98471.76
2022-09-28T10:44:12.449Z,98480.89
2022-09-28T10:49:46.997Z,98479.41
2022-09-28T10:54:55.199Z,98479.00
2022-09-28T11:00:02.711Z,98481.48
2022-09-28T11:05:24.003Z,98487.88
2022-09-28T11:10:35.635Z,98506.90
2022-09-28T11:15:45.746Z,98510.66
2022-09-28T11:21:12.630Z,98513.52
2022-09-28T11:26:23.455Z,98504.31
2022-09-28T11:31:28.534Z,98496.67
2022-09-28T11:36:53.041Z,98491.95
2022-09-28T11:42:11.019Z,98489.33
2022-09-28T11:47:33.165Z,98492.21
2022-09-28T11:52:55.070Z,98489.45
2022-09-28T11:58:04.288Z,98492.69
2022-09-28T12:03:44.670Z,98496.47
2022-09-28T12:08:55.137Z,98497.02
2022-09-28T12:14:46.678Z,98491.16
2022-09-28T12:19:55.706Z,98478.97
2022-09-28T12:24:59.785Z,98475.70
2022-09-28T12:30:14.141Z,98472.27
2022-09-28T12:35:37.498Z,98469.36
2022-09-28T12:40:54.099Z,98462.52
2022-09-28T12:46:16.463Z,98463.37
2022-09-28T12:51:53.286Z,98459.15
2022-09-28T12:57:14.573Z,98448.13
2022-09-28T13:02:42.207Z,98437.88
2022-09-28T13:08:24.076Z,98421.77
2022-09-28T13:13:43.120Z,98428.41
2022-09-28T13:18:54.269Z,98414.17
2022-09-28T13:24:14.361Z,98410.69
2022-09-28T13:29:25.335Z,98418.66
2022-09-28T13:34:32.857Z,98418.71
2022-09-28T13:39:37.828Z,98421.92
2022-09-28T13:44:47.420Z,98418.83
2022-09-28T13:50:02.672Z,98415.30
2022-09-28T13:55:23.437Z,98415.86
2022-09-28T14:00:54.600Z,98414.42
2022-09-28T14:06:02.402Z,98414.56
2022-09-28T14:11:25.321Z,98412.75
2022-09-28T14:16:33.747Z,98414.69
2022-09-28T14:22:16.889Z,98407.61
2022-09-28T14:28:19.307Z,98395.23
2022-09-28T14:33:23.227Z,98396.52
2022-09-28T14:38:55.894Z,98399.84
2022-09-28T14:44:10.919Z,98395.66
2022-09-28T14:49:24.344Z,98393.29
2022-09-28T14:54:39.630Z,98393.98
2022-09-28T14:59:46.951Z,98392.83
2022-09-28T15:04:55.663Z,98385.30
2022-09-28T15:10:02.318Z,98386.95
2022-09-28T15:15:22.811Z,98379.02
2022-09-28T15:20:43.899Z,98374.58
2022-09-28T15:26:03.547Z,98384.09
2022-09-28T15:31:21.751Z,98385.02
2022-09-28T15:36:59.224Z,98380.80
2022-09-28T15:42:08.803Z,98383.24
2022-09-28T15:47:28.568Z,98386.35
2022-09-28T15:52:44.007Z,98394.16
2022-09-28T15:58:06.650Z,98406.39
2022-09-28T16:03:15.813Z,98419.92
2022-09-28T16:08:44.810Z,98428.84
2022-09-28T16:13:56.500Z,98439.90
2022-09-28T16:19:04.220Z,98438.00
2022-09-28T16:24:20.656Z,98442.28
2022-09-28T16:29:41.026Z,98443.09
2022-09-28T16:34:44.467Z,98446.60
2022-09-28T16:39:55.059Z,98448.64
2022-09-28T16:44:58.803Z,98446.38
2022-09-28T16:50:06.819Z,98449.14
2022-09-28T16:55:39.581Z,98447.01
2022-09-28T17:00:47.922Z,98461.51
2022-09-28T17:05:54.407Z,98466.89
2022-09-28T17:11:23.412Z,98475.21
2022-09-28T17:17:06.091Z,98480.53
2022-09-28T17:21:55.827Z,98487.94
2022-09-28T17:27:01.178Z,98490.91
2022-09-28T17:32:19.445Z,98494.92
2022-09-28T17:37:22.892Z,98496.47
2022-09-28T17:42:29.099Z,98503.83
2022-09-28T17:47:35.098Z,98510.81
2022-09-28T17:52:39.386Z,98513.95
2022-09-28T17:57:42.996Z,98518.34
2022-09-28T18:02:46.491Z,98521.59
2022-09-28T18:07:50.754Z,98531.95
2022-09-28T18:12:56.272Z,98535.14
2022-09-28T18:17:59.648Z,98540.44
2022-09-28T18:23:03.331Z,98549.43
2022-09-28T18:28:06.774Z,98561.90
2022-09-28T18:33:12.590Z,98568.86
2022-09-28T18:38:25.624Z,98570.70
2022-09-28T18:43:33.193Z,98573.97
2022-09-28T18:48:45.894Z,98583.20
2022-09-28T18:54:00.333Z,98596.61
2022-09-28T18:59:23.396Z,98599.20
2022-09-28T19:04:42.496Z,98611.32
2022-09-28T19:10:06.275Z,98617.06
2022-09-28T19:15:23.266Z,98618.39
2022-09-28T19:20:32.098Z,98619.59
2022-09-28T19:26:00.264Z,98619.91
2022-09-28T19:31:09.619Z,98624.34
2022-09-28T19:36:29.699Z,98629.77
2022-09-28T19:41:44.909Z,98627.14
2022-09-28T19:46:48.345Z,98628.04
2022-09-28T19:52:17.506Z,98631.70
2022-09-28T19:57:31.589Z,98638.25
2022-09-28T20:02:38.126Z,98648.42
2022-09-28T20:07:45.270Z,98650.29
2022-09-28T20:12:48.693Z,98664.62
2022-09-28T20:17:52.751Z,98675.27
2022-09-28T20:22:58.621Z,98679.27
2022-09-28T20:28:02.757Z,98686.42
2022-09-28T20:33:19.006Z,98700.40
2022-09-28T20:38:42.532Z,98709.02
2022-09-28T20:43:54.591Z,98716.85
2022-09-28T20:49:08.147Z,98722.40
2022-09-28T20:54:15.224Z,98728.65
2022-09-28T20:59:30.347Z,98734.24
2022-09-28T21:04:40.681Z,98741.64
2022-09-28T21:09:44.562Z,98746.35
2022-09-28T21:14:51.425Z,98754.01
2022-09-28T21:19:54.793Z,98762.75
2022-09-28T21:24:59.658Z,98762.88
2022-09-28T21:30:03.675Z,98763.89
2022-09-28T21:35:07.501Z,98766.84
2022-09-28T21:40:11.134Z,98770.52
2022-09-28T21:45:15.046Z,98777.46
2022-09-28T21:50:20.317Z,98779.63
2022-09-28T21:55:28.765Z,98783.01
2022-09-28T22:00:39.525Z,98786.90
2022-09-28T22:05:45.345Z,98790.14
2022-09-28T22:11:22.923Z,98794.25
2022-09-28T22:16:30.545Z,98798.27
2022-09-28T22:21:39.507Z,98801.36
2022-09-28T22:26:46.592Z,98800.87
2022-09-28T22:31:51.558Z,98796.67
2022-09-28T22:36:57.247Z,98800.11
2022-09-28T22:42:02.902Z,98799.27
2022-09-28T22:47:06.515Z,98805.32
2022-09-28T22:52:12.007Z,98809.16
2022-09-28T22:57:15.418Z,98810.80
2022-09-28T23:02:19.400Z,98819.43
2022-09-28T23:07:23.852Z,98820.54
2022-09-28T23:12:28.153Z,98823.65
2022-09-28T23:17:31.434Z,98830.54
2022-09-28T23:22:34.773Z,98829.30
2022-09-28T23:27:38.285Z,98825.17
2022-09-28T23:32:42.400Z,98824.30
2022-09-28T23:37:50.973Z,98823.50
2022-09-28T23:42:54.253Z,98823.38
2022-09-28T23:47:57.671Z,98823.98
2022-09-28T23:53:01.518Z,98823.56
2022-09-28T23:58:04.877Z,98823.59
